sensor_id;sensor_type;location;lat;lon;timestamp;pressure;altitude;pressure_sealevel;temperature;humidity
36138;BME280;67787;50.074;21.904;2023-03-21T00:00:41;98986.41;;;8.94;61.61
36138;BME280;67787;50.074;21.904;2023-03-21T00:03:20;98986.58;;;8.97;61.68
36138;BME280;67787;50.074;21.904;2023-03-21T00:05:46;98984.69;;;8.99;61.58
36138;BME280;67787;50.074;21.904;2023-03-21T00:08:17;98981.79;;;9.00;61.64
36138;BME280;67787;50.074;21.904;2023-03-21T00:10:44;98977.90;;;9.00;61.70
36138;BME280;67787;50.074;21.904;2023-03-21T00:13:11;98980.21;;;8.99;61.64
36138;BME280;67787;50.074;21.904;2023-03-21T00:15:38;98979.70;;;8.99;61.77
36138;BME280;67787;50.074;21.904;2023-03-21T00:18:30;98980.60;;;8.99;61.79
36138;BME280;67787;50.074;21.904;2023-03-21T00:20:59;98979.55;;;8.99;61.89
36138;BME280;67787;50.074;21.904;2023-03-21T00:23:46;98975.95;;;9.00;61.90
36138;BME280;67787;50.074;21.904;2023-03-21T00:26:13;98974.30;;;9.01;61.90
36138;BME280;67787;50.074;21.904;2023-03-21T00:28:41;98973.31;;;9.02;62.01
36138;BME280;67787;50.074;21.904;2023-03-21T00:31:09;98974.11;;;9.03;61.94
36138;BME280;67787;50.074;21.904;2023-03-21T00:33:36;98970.49;;;9.04;62.02
36138;BME280;67787;50.074;21.904;2023-03-21T00:36:05;98976.64;;;9.05;62.22
36138;BME280;67787;50.074;21.904;2023-03-21T00:38:33;98973.79;;;9.05;62.13
36138;BME280;67787;50.074;21.904;2023-03-21T00:41:03;98970.94;;;9.06;62.13
36138;BME280;67787;50.074;21.904;2023-03-21T00:43:44;98973.53;;;9.06;62.36
36138;BME280;67787;50.074;21.904;2023-03-21T00:46:11;98970.06;;;9.06;62.38
36138;BME280;67787;50.074;21.904;2023-03-21T00:48:38;98971.66;;;9.06;62.33
36138;BME280;67787;50.074;21.904;2023-03-21T00:51:16;98971.74;;;9.04;62.57
36138;BME280;67787;50.074;21.904;2023-03-21T00:53:46;98971.16;;;9.02;62.66
36138;BME280;67787;50.074;21.904;2023-03-21T00:56:13;98973.51;;;9.02;62.58
36138;BME280;67787;50.074;21.904;2023-03-21T00:58:39;98970.11;;;9.00;62.57
36138;BME280;67787;50.074;21.904;2023-03-21T01:01:06;98970.38;;;8.98;62.63
36138;BME280;67787;50.074;21.904;2023-03-21T01:03:34;98971.34;;;8.97;62.84
36138;BME280;67787;50.074;21.904;2023-03-21T01:06:08;98971.27;;;8.96;62.78
36138;BME280;67787;50.074;21.904;2023-03-21T01:08:40;98969.36;;;8.92;62.98
36138;BME280;67787;50.074;21.904;2023-03-21T01:11:22;98966.92;;;8.92;62.94
36138;BME280;67787;50.074;21.904;2023-03-21T01:13:50;98966.50;;;8.90;62.93
36138;BME280;67787;50.074;21.904;2023-03-21T01:16:37;98964.64;;;8.89;62.97
36138;BME280;67787;50.074;21.904;2023-03-21T01:19:05;98965.66;;;8.89;63.02
36138;BME280;67787;50.074;21.904;2023-03-21T01:21:41;98960.31;;;8.90;62.90
36138;BME280;67787;50.074;21.904;2023-03-21T01:24:08;98960.95;;;8.91;62.91
36138;BME280;67787;50.074;21.904;2023-03-21T01:26:34;98957.09;;;8.91;63.02
36138;BME280;67787;50.074;21.904;2023-03-21T01:29:03;98957.59;;;8.91;63.01
36138;BME280;67787;50.074;21.904;2023-03-21T01:31:30;98956.69;;;8.91;62.90
36138;BME280;67787;50.074;21.904;2023-03-21T01:33:57;98956.55;;;8.90;63.07
36138;BME280;67787;50.074;21.904;2023-03-21T01:36:25;98953.79;;;8.90;63.21
36138;BME280;67787;50.074;21.904;2023-03-21T01:38:52;98950.45;;;8.89;63.21
36138;BME280;67787;50.074;21.904;2023-03-21T01:41:27;98948.86;;;8.89;63.23
36138;BME280;67787;50.074;21.904;2023-03-21T01:44:18;98950.44;;;8.90;63.31
36138;BME280;67787;50.074;21.904;2023-03-21T01:46:49;98950.11;;;8.89;63.34
36138;BME280;67787;50.074;21.904;2023-03-21T01:49:40;98949.17;;;8.87;63.33
36138;BME280;67787;50.074;21.904;2023-03-21T01:52:23;98951.31;;;8.87;63.47
36138;BME280;67787;50.074;21.904;2023-03-21T01:55:06;98952.98;;;8.86;63.59
36138;BME280;67787;50.074;21.904;2023-03-21T01:57:45;98952.52;;;8.85;63.54
36138;BME280;67787;50.074;21.904;2023-03-21T02:00:31;98948.77;;;8.83;63.55
36138;BME280;67787;50.074;21.904;2023-03-21T02:02:59;98946.51;;;8.82;63.48
36138;BME280;67787;50.074;21.904;2023-03-21T02:06:01;98946.19;;;8.82;63.67
36138;BME280;67787;50.074;21.904;2023-03-21T02:08:30;98946.48;;;8.80;63.71
36138;BME280;67787;50.074;21.904;2023-03-21T02:11:07;98942.74;;;8.77;63.74
36138;BME280;67787;50.074;21.904;2023-03-21T02:13:35;98945.98;;;8.77;63.78
36138;BME280;67787;50.074;21.904;2023-03-21T02:24:51;98947.84;;;8.71;63.97
36138;BME280;67787;50.074;21.904;2023-03-21T02:27:38;98944.56;;;8.69;64.02
36138;BME280;67787;50.074;21.904;2023-03-21T02:30:35;98945.45;;;8.69;64.16
36138;BME280;67787;50.074;21.904;2023-03-21T02:36:58;98944.11;;;8.70;64.14
36138;BME280;67787;50.074;21.904;2023-03-21T02:39:13;98945.13;;;8.71;64.15
36138;BME280;67787;50.074;21.904;2023-03-21T02:41:47;98946.02;;;8.71;64.17
36138;BME280;67787;50.074;21.904;2023-03-21T02:49:43;98948.29;;;8.69;64.46
36138;BME280;67787;50.074;21.904;2023-03-21T02:52:18;98947.27;;;8.68;64.32
36138;BME280;67787;50.074;21.904;2023-03-21T02:55:05;98949.84;;;8.67;64.58
36138;BME280;67787;50.074;21.904;2023-03-21T02:57:40;98948.36;;;8.65;64.36
36138;BME280;67787;50.074;21.904;2023-03-21T03:00:12;98944.65;;;8.65;64.63
36138;BME280;67787;50.074;21.904;2023-03-21T03:02:44;98946.75;;;8.65;64.54
36138;BME280;67787;50.074;21.904;2023-03-21T03:05:26;98948.30;;;8.66;64.49
36138;BME280;67787;50.074;21.904;2023-03-21T03:08:13;98948.57;;;8.68;64.51
36138;BME280;67787;50.074;21.904;2023-03-21T03:13:59;98948.29;;;8.67;64.65
36138;BME280;67787;50.074;21.904;2023-03-21T03:19:48;98948.11;;;8.66;64.80
36138;BME280;67787;50.074;21.904;2023-03-21T03:22:34;98946.92;;;8.65;64.98
36138;BME280;67787;50.074;21.904;2023-03-21T03:25:07;98953.56;;;8.67;65.29
36138;BME280;67787;50.074;21.904;2023-03-21T03:27:55;98950.38;;;8.67;65.49
36138;BME280;67787;50.074;21.904;2023-03-21T03:30:25;98948.16;;;8.66;65.56
36138;BME280;67787;50.074;21.904;2023-03-21T03:33:07;98951.89;;;8.65;65.29
36138;BME280;67787;50.074;21.904;2023-03-21T03:35:36;98953.63;;;8.66;65.54
36138;BME280;67787;50.074;21.904;2023-03-21T03:38:05;98952.20;;;8.66;65.69
36138;BME280;67787;50.074;21.904;2023-03-21T03:40:48;98952.39;;;8.66;65.65
36138;BME280;67787;50.074;21.904;2023-03-21T03:43:22;98953.10;;;8.66;65.91
36138;BME280;67787;50.074;21.904;2023-03-21T03:45:56;98951.72;;;8.65;65.73
36138;BME280;67787;50.074;21.904;2023-03-21T03:48:31;98949.02;;;8.63;66.03
36138;BME280;67787;50.074;21.904;2023-03-21T03:51:05;98946.60;;;8.62;65.80
36138;BME280;67787;50.074;21.904;2023-03-21T03:53:36;98948.48;;;8.63;66.48
36138;BME280;67787;50.074;21.904;2023-03-21T03:56:07;98945.20;;;8.62;66.35
36138;BME280;67787;50.074;21.904;2023-03-21T03:58:38;98944.74;;;8.61;66.42
36138;BME280;67787;50.074;21.904;2023-03-21T04:01:11;98947.14;;;8.59;66.52
36138;BME280;67787;50.074;21.904;2023-03-21T04:03:40;98947.91;;;8.58;66.32
36138;BME280;67787;50.074;21.904;2023-03-21T04:06:18;98947.81;;;8.57;66.39
36138;BME280;67787;50.074;21.904;2023-03-21T04:08:44;98946.75;;;8.57;66.02
36138;BME280;67787;50.074;21.904;2023-03-21T04:11:14;98944.66;;;8.57;66.11
36138;BME280;67787;50.074;21.904;2023-03-21T04:13:41;98944.67;;;8.57;66.26
36138;BME280;67787;50.074;21.904;2023-03-21T04:16:09;98948.93;;;8.56;66.71
36138;BME280;67787;50.074;21.904;2023-03-21T04:18:37;98947.76;;;8.56;66.45
36138;BME280;67787;50.074;21.904;2023-03-21T04:21:12;98948.94;;;8.54;66.79
36138;BME280;67787;50.074;21.904;2023-03-21T04:23:40;98950.92;;;8.53;66.57
36138;BME280;67787;50.074;21.904;2023-03-21T04:26:07;98955.02;;;8.53;66.66
36138;BME280;67787;50.074;21.904;2023-03-21T04:28:34;98950.96;;;8.52;66.48
36138;BME280;67787;50.074;21.904;2023-03-21T04:31:04;98953.02;;;8.51;66.69
36138;BME280;67787;50.074;21.904;2023-03-21T04:33:45;98952.83;;;8.51;67.59
36138;BME280;67787;50.074;21.904;2023-03-21T04:36:13;98951.98;;;8.51;66.63
36138;BME280;67787;50.074;21.904;2023-03-21T04:38:52;98954.95;;;8.51;67.10
36138;BME280;67787;50.074;21.904;2023-03-21T04:41:18;98955.35;;;8.50;67.42
36138;BME280;67787;50.074;21.904;2023-03-21T04:43:45;98954.96;;;8.47;67.45
36138;BME280;67787;50.074;21.904;2023-03-21T04:46:12;98954.98;;;8.47;67.03
36138;BME280;67787;50.074;21.904;2023-03-21T04:48:39;98955.77;;;8.46;67.18
36138;BME280;67787;50.074;21.904;2023-03-21T04:51:05;98953.08;;;8.46;67.19
36138;BME280;67787;50.074;21.904;2023-03-21T04:53:32;98955.23;;;8.46;67.19
36138;BME280;67787;50.074;21.904;2023-03-21T04:56:00;98955.91;;;8.46;67.20
36138;BME280;67787;50.074;21.904;2023-03-21T04:58:26;98956.59;;;8.47;67.08
36138;BME280;67787;50.074;21.904;2023-03-21T05:00:53;98957.31;;;8.47;67.33
36138;BME280;67787;50.074;21.904;2023-03-21T05:03:20;98957.32;;;8.46;67.20
36138;BME280;67787;50.074;21.904;2023-03-21T05:05:48;98958.20;;;8.46;67.24
36138;BME280;67787;50.074;21.904;2023-03-21T05:08:15;98958.14;;;8.47;67.05
36138;BME280;67787;50.074;21.904;2023-03-21T05:10:42;98955.91;;;8.50;67.04
36138;BME280;67787;50.074;21.904;2023-03-21T05:13:08;98956.90;;;8.51;67.15
36138;BME280;67787;50.074;21.904;2023-03-21T05:15:34;98960.17;;;8.52;67.02
36138;BME280;67787;50.074;21.904;2023-03-21T05:18:02;98956.89;;;8.54;67.00
36138;BME280;67787;50.074;21.904;2023-03-21T05:20:39;98961.62;;;8.54;67.17
36138;BME280;67787;50.074;21.904;2023-03-21T05:23:09;98962.34;;;8.57;67.27
36138;BME280;67787;50.074;21.904;2023-03-21T05:25:38;98963.77;;;8.56;67.20
36138;BME280;67787;50.074;21.904;2023-03-21T05:28:06;98963.73;;;8.57;67.27
36138;BME280;67787;50.074;21.904;2023-03-21T05:30:33;98966.33;;;8.58;67.44
36138;BME280;67787;50.074;21.904;2023-03-21T05:33:00;98968.34;;;8.59;67.44
36138;BME280;67787;50.074;21.904;2023-03-21T05:35:27;98966.81;;;8.61;67.47
36138;BME280;67787;50.074;21.904;2023-03-21T05:37:53;98971.63;;;8.63;67.43
36138;BME280;67787;50.074;21.904;2023-03-21T05:40:20;98970.93;;;8.66;67.56
36138;BME280;67787;50.074;21.904;2023-03-21T05:42:47;98975.29;;;8.67;67.49
36138;BME280;67787;50.074;21.904;2023-03-21T05:45:17;98978.02;;;8.69;67.62
36138;BME280;67787;50.074;21.904;2023-03-21T05:47:43;98984.90;;;8.69;67.49
36138;BME280;67787;50.074;21.904;2023-03-21T05:50:11;98981.18;;;8.69;67.49
36138;BME280;67787;50.074;21.904;2023-03-21T05:52:39;98983.83;;;8.69;67.95
36138;BME280;67787;50.074;21.904;2023-03-21T05:55:05;98982.33;;;8.67;67.71
36138;BME280;67787;50.074;21.904;2023-03-21T05:57:34;98983.55;;;8.67;67.63
36138;BME280;67787;50.074;21.904;2023-03-21T06:00:06;98984.34;;;8.69;67.62
36138;BME280;67787;50.074;21.904;2023-03-21T06:02:34;98989.46;;;8.69;67.80
36138;BME280;67787;50.074;21.904;2023-03-21T06:05:04;98991.12;;;8.68;67.85
36138;BME280;67787;50.074;21.904;2023-03-21T06:07:32;98993.95;;;8.68;67.77
36138;BME280;67787;50.074;21.904;2023-03-21T06:10:00;98988.83;;;8.68;67.78
36138;BME280;67787;50.074;21.904;2023-03-21T06:12:26;98989.90;;;8.68;67.77
36138;BME280;67787;50.074;21.904;2023-03-21T06:14:54;98991.95;;;8.69;67.79
36138;BME280;67787;50.074;21.904;2023-03-21T06:17:21;98992.56;;;8.70;67.81
36138;BME280;67787;50.074;21.904;2023-03-21T06:19:48;98991.96;;;8.72;67.91
36138;BME280;67787;50.074;21.904;2023-03-21T06:22:14;98998.05;;;8.73;67.97
36138;BME280;67787;50.074;21.904;2023-03-21T06:24:41;98997.45;;;8.76;67.93
36138;BME280;67787;50.074;21.904;2023-03-21T06:27:10;98995.52;;;8.82;67.93
36138;BME280;67787;50.074;21.904;2023-03-21T06:29:38;99000.67;;;8.87;68.33
36138;BME280;67787;50.074;21.904;2023-03-21T06:32:05;98999.58;;;8.90;68.13
36138;BME280;67787;50.074;21.904;2023-03-21T06:34:35;99000.05;;;8.91;68.14
36138;BME280;67787;50.074;21.904;2023-03-21T06:37:05;99004.13;;;8.91;68.62
36138;BME280;67787;50.074;21.904;2023-03-21T06:39:32;99005.43;;;8.92;68.50
36138;BME280;67787;50.074;21.904;2023-03-21T06:41:59;99007.69;;;8.96;68.52
36138;BME280;67787;50.074;21.904;2023-03-21T06:44:27;99006.66;;;9.01;68.61
36138;BME280;67787;50.074;21.904;2023-03-21T06:46:53;99008.70;;;9.04;68.95
36138;BME280;67787;50.074;21.904;2023-03-21T06:49:23;99011.05;;;9.06;68.92
36138;BME280;67787;50.074;21.904;2023-03-21T06:51:50;99008.23;;;9.12;68.50
36138;BME280;67787;50.074;21.904;2023-03-21T06:54:16;99006.82;;;9.19;68.50
36138;BME280;67787;50.074;21.904;2023-03-21T06:56:44;99009.71;;;9.26;68.74
36138;BME280;67787;50.074;21.904;2023-03-21T06:59:12;99006.60;;;9.31;68.67
36138;BME280;67787;50.074;21.904;2023-03-21T07:01:39;99004.51;;;9.37;69.02
36138;BME280;67787;50.074;21.904;2023-03-21T07:04:05;99010.60;;;9.42;68.62
36138;BME280;67787;50.074;21.904;2023-03-21T07:06:32;99010.98;;;9.47;68.66
36138;BME280;67787;50.074;21.904;2023-03-21T07:08:59;99011.48;;;9.52;68.80
36138;BME280;67787;50.074;21.904;2023-03-21T07:11:25;99014.66;;;9.60;68.66
36138;BME280;67787;50.074;21.904;2023-03-21T07:13:53;99014.59;;;9.66;68.84
36138;BME280;67787;50.074;21.904;2023-03-21T07:16:20;99017.36;;;9.70;68.64
36138;BME280;67787;50.074;21.904;2023-03-21T07:18:47;99017.21;;;9.72;68.70
36138;BME280;67787;50.074;21.904;2023-03-21T07:21:13;99019.18;;;9.72;68.58
36138;BME280;67787;50.074;21.904;2023-03-21T07:23:40;99024.08;;;9.73;68.82
36138;BME280;67787;50.074;21.904;2023-03-21T07:26:08;99023.23;;;9.75;68.56
36138;BME280;67787;50.074;21.904;2023-03-21T07:28:35;99021.40;;;9.75;68.87
36138;BME280;67787;50.074;21.904;2023-03-21T07:31:04;99021.78;;;9.75;68.56
36138;BME280;67787;50.074;21.904;2023-03-21T07:33:32;99020.52;;;9.80;68.68
36138;BME280;67787;50.074;21.904;2023-03-21T07:35:59;99018.84;;;9.87;68.71
36138;BME280;67787;50.074;21.904;2023-03-21T07:38:28;99020.11;;;9.91;68.63
36138;BME280;67787;50.074;21.904;2023-03-21T07:40:58;99020.05;;;9.97;68.68
36138;BME280;67787;50.074;21.904;2023-03-21T07:43:25;99024.91;;;10.04;68.68
36138;BME280;67787;50.074;21.904;2023-03-21T07:45:56;99022.95;;;10.09;68.67
36138;BME280;67787;50.074;21.904;2023-03-21T07:48:23;99025.23;;;10.17;68.76
36138;BME280;67787;50.074;21.904;2023-03-21T07:50:50;99025.81;;;10.26;68.78
36138;BME280;67787;50.074;21.904;2023-03-21T07:53:17;99025.53;;;10.40;68.90
36138;BME280;67787;50.074;21.904;2023-03-21T07:55:52;99027.23;;;10.49;68.77
36138;BME280;67787;50.074;21.904;2023-03-21T07:58:23;99026.91;;;10.55;68.81
36138;BME280;67787;50.074;21.904;2023-03-21T08:00:50;99026.92;;;10.63;68.79
36138;BME280;67787;50.074;21.904;2023-03-21T08:03:17;99031.16;;;10.68;68.74
36138;BME280;67787;50.074;21.904;2023-03-21T08:05:45;99029.38;;;10.70;68.93
36138;BME280;67787;50.074;21.904;2023-03-21T08:08:12;99027.31;;;10.77;69.04
36138;BME280;67787;50.074;21.904;2023-03-21T08:10:41;99027.67;;;10.84;69.08
36138;BME280;67787;50.074;21.904;2023-03-21T08:13:11;99030.67;;;10.84;68.88
36138;BME280;67787;50.074;21.904;2023-03-21T08:15:38;99031.42;;;10.81;69.12
36138;BME280;67787;50.074;21.904;2023-03-21T08:18:07;99033.38;;;10.74;68.72
36138;BME280;67787;50.074;21.904;2023-03-21T08:20:37;99032.65;;;10.69;68.71
36138;BME280;67787;50.074;21.904;2023-03-21T08:23:04;99031.82;;;10.66;68.70
36138;BME280;67787;50.074;21.904;2023-03-21T08:25:54;99034.80;;;10.69;68.75
36138;BME280;67787;50.074;21.904;2023-03-21T08:28:21;99034.53;;;10.75;68.69
36138;BME280;67787;50.074;21.904;2023-03-21T08:30:48;99032.84;;;10.81;68.65
36138;BME280;67787;50.074;21.904;2023-03-21T08:33:15;99035.20;;;10.90;68.60
36138;BME280;67787;50.074;21.904;2023-03-21T08:35:43;99035.65;;;10.98;68.65
36138;BME280;67787;50.074;21.904;2023-03-21T08:38:12;99033.52;;;11.13;68.80
36138;BME280;67787;50.074;21.904;2023-03-21T08:40:39;99030.04;;;11.31;68.83
36138;BME280;67787;50.074;21.904;2023-03-21T08:43:06;99030.53;;;11.48;68.71
36138;BME280;67787;50.074;21.904;2023-03-21T08:45:33;99034.85;;;11.52;68.29
36138;BME280;67787;50.074;21.904;2023-03-21T08:47:59;99031.41;;;11.52;68.22
36138;BME280;67787;50.074;21.904;2023-03-21T08:50:26;99031.04;;;11.57;68.19
36138;BME280;67787;50.074;21.904;2023-03-21T08:52:55;99039.73;;;11.64;68.17
36138;BME280;67787;50.074;21.904;2023-03-21T08:55:21;99042.80;;;11.63;68.02
36138;BME280;67787;50.074;21.904;2023-03-21T08:57:48;99042.88;;;11.63;67.86
36138;BME280;67787;50.074;21.904;2023-03-21T09:00:16;99043.73;;;11.58;67.72
36138;BME280;67787;50.074;21.904;2023-03-21T09:02:44;99047.33;;;11.56;67.71
36138;BME280;67787;50.074;21.904;2023-03-21T09:05:12;99043.84;;;11.57;67.64
36138;BME280;67787;50.074;21.904;2023-03-21T09:07:42;99043.70;;;11.61;67.83
36138;BME280;67787;50.074;21.904;2023-03-21T09:10:13;99040.72;;;11.68;68.00
36138;BME280;67787;50.074;21.904;2023-03-21T09:12:49;99044.38;;;11.83;68.20
36138;BME280;67787;50.074;21.904;2023-03-21T09:15:16;99043.61;;;11.95;67.90
36138;BME280;67787;50.074;21.904;2023-03-21T09:17:46;99045.29;;;12.01;67.88
36138;BME280;67787;50.074;21.904;2023-03-21T09:20:18;99043.69;;;12.01;67.43
36138;BME280;67787;50.074;21.904;2023-03-21T09:22:47;99045.21;;;11.92;67.13
36138;BME280;67787;50.074;21.904;2023-03-21T09:25:15;99046.46;;;11.76;66.45
36138;BME280;67787;50.074;21.904;2023-03-21T09:27:42;99048.38;;;11.74;67.52
36138;BME280;67787;50.074;21.904;2023-03-21T09:30:13;99048.52;;;11.88;67.76
36138;BME280;67787;50.074;21.904;2023-03-21T09:32:40;99050.77;;;11.99;67.61
36138;BME280;67787;50.074;21.904;2023-03-21T09:35:07;99048.91;;;12.02;67.40
36138;BME280;67787;50.074;21.904;2023-03-21T09:37:36;99049.43;;;12.07;67.56
36138;BME280;67787;50.074;21.904;2023-03-21T09:49:10;99057.59;;;12.05;66.09
36138;BME280;67787;50.074;21.904;2023-03-21T09:51:44;99058.82;;;12.05;66.43
36138;BME280;67787;50.074;21.904;2023-03-21T09:54:30;99056.27;;;11.99;65.98
36138;BME280;67787;50.074;21.904;2023-03-21T09:57:03;99056.34;;;11.98;66.63
36138;BME280;67787;50.074;21.904;2023-03-21T09:59:36;99052.29;;;11.97;66.50
36138;BME280;67787;50.074;21.904;2023-03-21T10:05:20;99049.07;;;11.88;66.71
36138;BME280;67787;50.074;21.904;2023-03-21T10:07:56;99050.65;;;11.91;66.72
36138;BME280;67787;50.074;21.904;2023-03-21T10:10:28;99057.76;;;11.91;66.02
36138;BME280;67787;50.074;21.904;2023-03-21T10:12:57;99054.91;;;11.84;66.17
36138;BME280;67787;50.074;21.904;2023-03-21T10:15:26;99054.60;;;11.86;66.17
36138;BME280;67787;50.074;21.904;2023-03-21T10:18:01;99050.80;;;11.93;66.26
36138;BME280;67787;50.074;21.904;2023-03-21T10:20:31;99049.40;;;12.00;66.46
36138;BME280;67787;50.074;21.904;2023-03-21T10:23:00;99049.84;;;12.06;66.02
36138;BME280;67787;50.074;21.904;2023-03-21T10:25:35;99052.40;;;12.10;66.10
36138;BME280;67787;50.074;21.904;2023-03-21T10:28:05;99047.24;;;12.14;66.12
36138;BME280;67787;50.074;21.904;2023-03-21T10:31:13;99046.20;;;12.23;66.39
36138;BME280;67787;50.074;21.904;2023-03-21T10:33:36;99047.75;;;12.37;65.93
36138;BME280;67787;50.074;21.904;2023-03-21T10:36:06;99045.20;;;12.47;66.12
36138;BME280;67787;50.074;21.904;2023-03-21T10:38:34;99040.56;;;12.56;65.82
36138;BME280;67787;50.074;21.904;2023-03-21T10:41:02;99045.86;;;12.65;65.51
36138;BME280;67787;50.074;21.904;2023-03-21T10:43:32;99042.94;;;12.70;65.56
36138;BME280;67787;50.074;21.904;2023-03-21T10:46:10;99043.52;;;12.85;65.47
36138;BME280;67787;50.074;21.904;2023-03-21T10:48:42;99037.82;;;12.98;65.87
36138;BME280;67787;50.074;21.904;2023-03-21T10:51:19;99039.33;;;13.08;65.87
36138;BME280;67787;50.074;21.904;2023-03-21T10:54:07;99037.52;;;12.95;64.89
36138;BME280;67787;50.074;21.904;2023-03-21T10:56:37;99038.17;;;12.61;65.30
36138;BME280;67787;50.074;21.904;2023-03-21T10:59:07;99039.81;;;12.41;65.55
36138;BME280;67787;50.074;21.904;2023-03-21T11:01:42;99038.61;;;12.23;65.26
36138;BME280;67787;50.074;21.904;2023-03-21T11:04:18;99041.29;;;11.97;65.05
36138;BME280;67787;50.074;21.904;2023-03-21T11:06:56;99042.11;;;11.77;65.22
36138;BME280;67787;50.074;21.904;2023-03-21T11:10:11;99042.95;;;11.62;65.60
36138;BME280;67787;50.074;21.904;2023-03-21T11:12:39;99046.17;;;11.52;65.66
36138;BME280;67787;50.074;21.904;2023-03-21T11:15:28;99048.38;;;11.42;65.63
36138;BME280;67787;50.074;21.904;2023-03-21T11:17:57;99050.54;;;11.30;65.67
36138;BME280;67787;50.074;21.904;2023-03-21T11:20:28;99054.92;;;11.21;65.78
36138;BME280;67787;50.074;21.904;2023-03-21T11:22:56;99053.23;;;11.10;65.73
36138;BME280;67787;50.074;21.904;2023-03-21T11:27:56;99048.86;;;10.97;66.04
36138;BME280;67787;50.074;21.904;2023-03-21T11:30:26;99047.92;;;10.95;65.99
36138;BME280;67787;50.074;21.904;2023-03-21T11:32:56;99046.47;;;11.01;66.11
36138;BME280;67787;50.074;21.904;2023-03-21T11:35:37;99041.52;;;11.15;66.11
36138;BME280;67787;50.074;21.904;2023-03-21T11:38:08;99037.72;;;11.35;66.32
36138;BME280;67787;50.074;21.904;2023-03-21T11:40:56;99028.16;;;11.58;66.22
36138;BME280;67787;50.074;21.904;2023-03-21T11:43:28;99025.56;;;11.68;66.10
36138;BME280;67787;50.074;21.904;2023-03-21T11:46:11;99024.78;;;11.67;65.87
36138;BME280;67787;50.074;21.904;2023-03-21T11:48:46;99023.50;;;11.56;65.91
36138;BME280;67787;50.074;21.904;2023-03-21T11:54:13;99018.95;;;11.37;65.98
36138;BME280;67787;50.074;21.904;2023-03-21T11:56:44;99015.27;;;11.26;66.04
36138;BME280;67787;50.074;21.904;2023-03-21T12:04:53;99019.64;;;11.04;66.08
36138;BME280;67787;50.074;21.904;2023-03-21T12:11:11;99027.06;;;10.85;66.07
36138;BME280;67787;50.074;21.904;2023-03-21T12:13:15;99029.39;;;10.75;66.12
36138;BME280;67787;50.074;21.904;2023-03-21T12:19:00;99029.98;;;10.60;66.24
36138;BME280;67787;50.074;21.904;2023-03-21T12:21:41;99032.81;;;10.62;66.38
36138;BME280;67787;50.074;21.904;2023-03-21T12:24:16;99031.70;;;10.68;66.39
36138;BME280;67787;50.074;21.904;2023-03-21T12:38:29;99014.49;;;10.87;66.76
36138;BME280;67787;50.074;21.904;2023-03-21T12:45:46;99002.36;;;11.00;66.59
36138;BME280;67787;50.074;21.904;2023-03-21T12:51:01;99000.29;;;10.99;66.57
36138;BME280;67787;50.074;21.904;2023-03-21T12:53:37;99001.44;;;11.03;66.68
36138;BME280;67787;50.074;21.904;2023-03-21T12:56:12;98991.47;;;11.17;66.94
36138;BME280;67787;50.074;21.904;2023-03-21T12:58:51;98990.92;;;11.43;66.99
36138;BME280;67787;50.074;21.904;2023-03-21T13:01:21;98985.05;;;11.71;67.13
36138;BME280;67787;50.074;21.904;2023-03-21T13:06:51;98983.84;;;12.14;66.99
36138;BME280;67787;50.074;21.904;2023-03-21T13:09:27;98981.68;;;12.27;66.95
36138;BME280;67787;50.074;21.904;2023-03-21T13:18:01;98977.48;;;12.35;66.82
36138;BME280;67787;50.074;21.904;2023-03-21T13:20:46;98975.09;;;12.32;66.88
36138;BME280;67787;50.074;21.904;2023-03-21T13:23:17;98973.23;;;12.32;66.87
36138;BME280;67787;50.074;21.904;2023-03-21T13:25:46;98970.34;;;12.36;66.95
36138;BME280;67787;50.074;21.904;2023-03-21T13:28:25;98969.92;;;12.34;66.74
36138;BME280;67787;50.074;21.904;2023-03-21T13:30:52;98971.33;;;12.23;66.60
36138;BME280;67787;50.074;21.904;2023-03-21T13:33:41;98970.17;;;12.18;66.77
36138;BME280;67787;50.074;21.904;2023-03-21T13:36:12;98962.14;;;12.12;66.68
36138;BME280;67787;50.074;21.904;2023-03-21T13:38:40;98963.66;;;12.06;66.92
36138;BME280;67787;50.074;21.904;2023-03-21T13:41:17;98966.19;;;12.01;66.90
36138;BME280;67787;50.074;21.904;2023-03-21T13:48:58;98960.08;;;11.68;66.62
36138;BME280;67787;50.074;21.904;2023-03-21T14:02:22;98962.70;;;11.03;66.95
36138;BME280;67787;50.074;21.904;2023-03-21T14:05:00;98981.02;;;10.89;67.34
36138;BME280;67787;50.074;21.904;2023-03-21T14:07:33;98993.36;;;10.63;67.95
36138;BME280;67787;50.074;21.904;2023-03-21T14:10:04;98995.48;;;10.34;68.02
36138;BME280;67787;50.074;21.904;2023-03-21T14:12:42;98996.89;;;10.11;68.22
36138;BME280;67787;50.074;21.904;2023-03-21T14:17:55;98990.92;;;9.86;68.06
36138;BME280;67787;50.074;21.904;2023-03-21T14:20:33;98986.42;;;9.82;68.10
36138;BME280;67787;50.074;21.904;2023-03-21T14:23:03;98988.79;;;9.81;68.33
36138;BME280;67787;50.074;21.904;2023-03-21T14:25:35;98989.80;;;9.84;68.17
36138;BME280;67787;50.074;21.904;2023-03-21T14:28:21;98983.96;;;9.94;67.85
36138;BME280;67787;50.074;21.904;2023-03-21T14:30:54;98983.55;;;10.10;67.98
36138;BME280;67787;50.074;21.904;2023-03-21T14:33:25;98986.87;;;10.20;68.45
36138;BME280;67787;50.074;21.904;2023-03-21T14:35:58;98986.67;;;10.18;68.77
36138;BME280;67787;50.074;21.904;2023-03-21T14:38:31;98991.32;;;10.10;68.11
36138;BME280;67787;50.074;21.904;2023-03-21T14:40:59;98993.13;;;10.07;68.13
36138;BME280;67787;50.074;21.904;2023-03-21T14:43:26;98997.32;;;10.00;68.12
36138;BME280;67787;50.074;21.904;2023-03-21T14:45:55;98993.09;;;9.93;68.14
36138;BME280;67787;50.074;21.904;2023-03-21T14:48:32;98992.75;;;9.85;68.47
36138;BME280;67787;50.074;21.904;2023-03-21T14:51:02;98992.95;;;9.75;68.28
36138;BME280;67787;50.074;21.904;2023-03-21T14:53:32;98994.05;;;9.66;68.55
36138;BME280;67787;50.074;21.904;2023-03-21T14:56:06;98992.91;;;9.57;68.46
36138;BME280;67787;50.074;21.904;2023-03-21T14:58:38;98995.47;;;9.51;68.21